createdAt,value
2022-09-03T00:00:35.183Z,67.07
2022-09-03T00:03:33.023Z,67.33
2022-09-03T00:06:30.508Z,67.45
2022-09-03T00:09:28.020Z,67.71
2022-09-03T00:12:26.870Z,67.80
2022-09-03T00:15:24.350Z,67.81
2022-09-03T00:18:21.897Z,68.10
2022-09-03T00:21:19.397Z,68.24
2022-09-03T00:24:16.864Z,68.42
2022-09-03T00:27:14.376Z,68.37
2022-09-03T00:30:14.654Z,68.65
2022-09-03T00:33:14.930Z,68.90
2022-09-03T00:36:12.690Z,68.81
2022-09-03T00:39:10.174Z,68.84
2022-09-03T00:42:08.276Z,69.14
2022-09-03T00:45:06.571Z,69.18
2022-09-03T00:48:04.049Z,69.27
2022-09-03T00:51:02.207Z,69.42
2022-09-03T00:53:59.676Z,69.61
2022-09-03T00:56:57.151Z,69.75
2022-09-03T00:59:57.134Z,69.89
2022-09-03T01:02:54.685Z,70.07
2022-09-03T01:05:52.434Z,70.02
2022-09-03T01:08:51.139Z,70.21
2022-09-03T01:11:50.151Z,70.40
2022-09-03T01:14:47.620Z,70.62
2022-09-03T01:17:45.080Z,70.68
2022-09-03T01:20:42.545Z,70.84
2022-09-03T01:23:40.019Z,70.96
2022-09-03T01:26:37.530Z,70.91
2022-09-03T01:29:35.720Z,71.23
2022-09-03T01:32:37.351Z,71.40
2022-09-03T01:35:35.155Z,71.45
2022-09-03T01:38:32.631Z,71.61
2022-09-03T01:41:47.970Z,71.64
2022-09-03T01:44:45.455Z,71.82
2022-09-03T01:47:48.120Z,72.05
2022-09-03T01:50:45.607Z,72.26
2022-09-03T01:53:43.105Z,72.27
2022-09-03T01:56:40.577Z,72.16
2022-09-03T01:59:38.076Z,72.19
2022-09-03T02:02:36.150Z,72.35
2022-09-03T02:05:35.863Z,72.57
2022-09-03T02:08:33.318Z,72.70
2022-09-03T02:11:30.785Z,72.65
2022-09-03T02:14:28.260Z,72.77
2022-09-03T02:17:25.764Z,73.00
2022-09-03T02:20:23.252Z,73.14
2022-09-03T02:23:24.743Z,73.24
2022-09-03T02:26:25.829Z,73.24
2022-09-03T02:29:23.304Z,73.40
2022-09-03T02:32:20.781Z,73.41
2022-09-03T02:35:18.256Z,73.50
2022-09-03T02:38:17.308Z,73.61
2022-09-03T02:41:15.590Z,73.69
2022-09-03T02:44:13.049Z,73.79
2022-09-03T02:47:10.561Z,73.83
2022-09-03T02:50:08.023Z,73.92
2022-09-03T02:53:05.671Z,73.85
2022-09-03T02:56:03.311Z,74.00
2022-09-03T02:59:01.405Z,74.09
2022-09-03T03:02:01.286Z,74.31
2022-09-03T03:04:58.901Z,74.30
2022-09-03T03:07:56.836Z,74.32
2022-09-03T03:10:57.142Z,74.38
2022-09-03T03:13:54.633Z,74.31
2022-09-03T03:16:52.183Z,74.37
2022-09-03T03:19:50.292Z,74.39
2022-09-03T03:22:47.800Z,74.36
2022-09-03T03:25:45.277Z,74.40
2022-09-03T03:28:42.795Z,74.46
2022-09-03T03:31:40.269Z,74.50
2022-09-03T03:34:38.667Z,74.53
2022-09-03T03:37:36.887Z,74.50
2022-09-03T03:40:35.028Z,74.64
2022-09-03T03:43:32.516Z,74.71
2022-09-03T03:46:29.996Z,74.65
2022-09-03T03:49:27.512Z,74.73
2022-09-03T03:52:25.055Z,74.73
2022-09-03T03:55:23.028Z,74.88
2022-09-03T03:58:25.211Z,75.03
2022-09-03T04:01:22.942Z,74.98
2022-09-03T04:04:20.475Z,74.99
2022-09-03T04:07:17.941Z,75.08
2022-09-03T04:10:15.658Z,75.14
2022-09-03T04:13:13.139Z,75.19
2022-09-03T04:16:11.182Z,75.18
2022-09-03T04:19:08.684Z,75.17
2022-09-03T04:22:06.172Z,75.19
2022-09-03T04:25:03.656Z,75.40
2022-09-03T04:28:03.985Z,75.52
2022-09-03T04:31:01.583Z,75.51
2022-09-03T04:33:59.168Z,75.53
2022-09-03T04:36:57.633Z,75.65
2022-09-03T04:39:55.300Z,75.73
2022-09-03T04:42:52.948Z,75.81
2022-09-03T04:45:50.495Z,75.97
2022-09-03T04:48:47.988Z,76.01
2022-09-03T04:51:45.450Z,76.04
2022-09-03T04:54:43.003Z,76.11
2022-09-03T04:57:43.176Z,76.17
2022-09-03T05:00:40.717Z,76.18
2022-09-03T05:03:38.632Z,76.25
2022-09-03T05:06:36.159Z,76.30
2022-09-03T05:09:33.653Z,76.32
2022-09-03T05:12:31.914Z,76.31
2022-09-03T05:15:29.395Z,76.31
2022-09-03T05:18:26.860Z,76.27
2022-09-03T05:21:24.716Z,76.14
2022-09-03T05:24:22.200Z,75.83
2022-09-03T05:27:19.690Z,75.61
2022-09-03T05:30:17.239Z,75.47
2022-09-03T05:33:15.537Z,75.47
2022-09-03T05:36:13.028Z,75.36
2022-09-03T05:39:10.522Z,75.19
2022-09-03T05:42:08.023Z,74.72
2022-09-03T05:45:05.610Z,74.56
2022-09-03T05:48:03.097Z,74.30
2022-09-03T05:51:01.097Z,74.15
2022-09-03T05:53:58.569Z,74.11
2022-09-03T05:56:56.162Z,73.95
2022-09-03T05:59:53.647Z,73.47
2022-09-03T06:02:51.166Z,73.17
2022-09-03T06:05:49.003Z,73.01
2022-09-03T06:08:46.472Z,72.63
2022-09-03T06:11:43.956Z,72.25
2022-09-03T06:14:43.753Z,71.79
2022-09-03T06:17:41.238Z,71.45
2022-09-03T06:20:40.254Z,70.91
2022-09-03T06:23:37.712Z,70.29
2022-09-03T06:26:38.838Z,69.40
2022-09-03T06:29:37.109Z,68.72
2022-09-03T06:32:34.590Z,67.87
2022-09-03T06:35:32.164Z,67.25
2022-09-03T06:38:40.581Z,66.56
2022-09-03T06:41:38.620Z,65.85
2022-09-03T06:44:36.101Z,64.64
2022-09-03T06:47:34.055Z,63.96
2022-09-03T06:50:34.617Z,62.78
2022-09-03T06:53:32.401Z,61.88
2022-09-03T06:56:29.894Z,60.92
2022-09-03T06:59:27.362Z,59.62
2022-09-03T07:02:24.888Z,58.02
2022-09-03T07:05:25.663Z,57.26
2022-09-03T07:08:23.160Z,56.31
2022-09-03T07:11:22.521Z,55.05
2022-09-03T07:14:20.057Z,53.85
2022-09-03T07:17:17.608Z,52.82
2022-09-03T07:20:15.091Z,52.72
2022-09-03T07:23:13.187Z,50.94
2022-09-03T07:26:10.719Z,49.94
2022-09-03T07:29:08.788Z,48.56
2022-09-03T07:32:06.346Z,48.26
2022-09-03T07:35:03.829Z,47.84
2022-09-03T07:38:01.338Z,46.66
2022-09-03T07:40:59.275Z,46.03
2022-09-03T07:43:57.293Z,45.18
2022-09-03T07:46:55.845Z,43.74
2022-09-03T07:49:53.365Z,43.44
2022-09-03T07:52:50.856Z,42.49
2022-09-03T07:55:49.520Z,42.35
2022-09-03T07:58:47.809Z,41.59
2022-09-03T08:01:45.270Z,40.38
2022-09-03T08:04:43.660Z,40.31
2022-09-03T08:07:41.188Z,39.08
2022-09-03T08:10:40.193Z,39.01
2022-09-03T08:13:37.678Z,38.55
2022-09-03T08:16:35.225Z,37.96
2022-09-03T08:19:32.858Z,37.91
2022-09-03T08:22:30.347Z,37.16
2022-09-03T08:25:27.863Z,36.51
2022-09-03T08:28:25.423Z,36.27
2022-09-03T08:31:23.052Z,35.41
2022-09-03T08:34:20.597Z,35.53
2022-09-03T08:37:18.074Z,34.87
2022-09-03T08:40:15.555Z,34.32
2022-09-03T08:43:13.390Z,34.53
2022-09-03T08:46:10.909Z,33.72
2022-09-03T08:49:08.431Z,33.45
2022-09-03T08:52:05.904Z,33.13
2022-09-03T08:55:03.438Z,33.04
2022-09-03T08:58:00.901Z,32.42
2022-09-03T09:01:01.694Z,31.92
2022-09-03T09:03:59.397Z,31.50
2022-09-03T09:06:57.266Z,30.75
2022-09-03T09:09:54.758Z,30.83
2022-09-03T09:12:52.235Z,30.49
2022-09-03T09:15:49.762Z,30.94
2022-09-03T09:18:47.758Z,30.55
2022-09-03T09:21:46.315Z,30.01
2022-09-03T09:24:44.276Z,30.02
2022-09-03T09:27:41.748Z,29.94
2022-09-03T09:30:39.237Z,29.76
2022-09-03T09:33:36.722Z,29.58
2022-09-03T09:36:34.195Z,29.10
2022-09-03T09:39:32.118Z,28.77
2022-09-03T09:42:31.213Z,28.54
2022-09-03T09:45:28.753Z,28.24
2022-09-03T09:48:27.204Z,28.07
2022-09-03T09:51:24.658Z,28.17
2022-09-03T09:54:22.279Z,27.68
2022-09-03T09:57:19.779Z,27.38
2022-09-03T10:00:17.319Z,27.56
2022-09-03T10:03:14.880Z,27.48
2022-09-03T10:06:30.026Z,27.37
2022-09-03T10:09:31.383Z,27.05
2022-09-03T10:12:29.366Z,26.80
2022-09-03T10:15:26.851Z,26.67
2022-09-03T10:18:28.728Z,26.61
2022-09-03T10:21:26.552Z,26.73
2022-09-03T10:24:24.178Z,26.52
2022-09-03T10:27:23.036Z,25.97
2022-09-03T10:30:20.527Z,25.95
2022-09-03T10:33:18.079Z,25.54
2022-09-03T10:36:15.642Z,25.36
2022-09-03T10:39:13.142Z,25.62
2022-09-03T10:42:11.282Z,25.70
2022-09-03T10:45:09.778Z,26.22
2022-09-03T10:48:07.255Z,26.54
2022-09-03T10:51:04.869Z,26.62
2022-09-03T10:54:02.357Z,26.52
2022-09-03T10:56:59.889Z,26.58
2022-09-03T10:59:57.360Z,26.21
2022-09-03T11:02:54.985Z,25.83
2022-09-03T11:05:53.091Z,25.67
2022-09-03T11:08:51.157Z,25.34
2022-09-03T11:11:48.652Z,25.16
2022-09-03T11:14:46.887Z,25.19
2022-09-03T11:17:44.392Z,25.31
2022-09-03T11:20:42.437Z,25.13
2022-09-03T11:23:40.707Z,24.78
2022-09-03T11:26:39.905Z,24.25
2022-09-03T11:29:38.299Z,24.33
2022-09-03T11:32:35.802Z,24.01
2022-09-03T11:35:33.725Z,24.02
2022-09-03T11:38:32.222Z,23.74
2022-09-03T11:41:29.698Z,23.80
2022-09-03T11:44:27.765Z,24.00
2022-09-03T11:47:25.248Z,23.93
2022-09-03T11:50:22.766Z,24.01
2022-09-03T11:53:20.382Z,23.87
2022-09-03T11:56:17.900Z,23.56
2022-09-03T11:59:16.766Z,23.84
2022-09-03T12:02:14.287Z,23.73
2022-09-03T12:05:12.397Z,23.51
2022-09-03T12:08:09.873Z,23.53
2022-09-03T12:11:09.884Z,23.55
2022-09-03T12:14:11.653Z,23.82
2022-09-03T12:17:11.105Z,23.92
2022-09-03T12:20:08.600Z,24.11
2022-09-03T12:23:06.711Z,24.42
2022-09-03T12:26:04.181Z,24.65
2022-09-03T12:29:02.851Z,24.93
2022-09-03T12:32:01.832Z,24.98
2022-09-03T12:34:59.311Z,24.97
2022-09-03T12:38:06.527Z,24.93
2022-09-03T12:41:26.826Z,25.23
2022-09-03T12:44:23.743Z,25.10
2022-09-03T12:47:38.028Z,25.76
2022-09-03T12:50:35.793Z,25.73
2022-09-03T12:53:33.277Z,25.88
2022-09-03T12:56:32.391Z,26.10
2022-09-03T12:59:30.376Z,26.16
2022-09-03T13:02:27.966Z,26.29
2022-09-03T13:05:25.488Z,26.13
2022-09-03T13:08:22.955Z,26.22
2022-09-03T13:11:20.448Z,26.32
2022-09-03T13:14:19.125Z,26.49
2022-09-03T13:17:16.706Z,26.56
2022-09-03T13:20:14.184Z,26.64
2022-09-03T13:23:12.094Z,26.80
2022-09-03T13:26:10.706Z,27.30
2022-09-03T13:29:08.179Z,27.62
2022-09-03T13:32:06.328Z,27.88
2022-09-03T13:35:03.934Z,27.78
2022-09-03T13:38:02.133Z,27.98
2022-09-03T13:40:59.826Z,28.17
2022-09-03T13:43:57.287Z,28.24
2022-09-03T13:46:54.787Z,28.60
2022-09-03T13:50:10.176Z,28.88
2022-09-03T13:53:07.767Z,28.82
2022-09-03T13:56:06.660Z,28.99
2022-09-03T13:59:05.238Z,29.37
2022-09-03T14:02:02.751Z,29.92
2022-09-03T14:05:00.286Z,29.99
2022-09-03T14:07:58.086Z,30.27
2022-09-03T14:10:55.905Z,30.29
2022-09-03T14:13:54.794Z,30.48
2022-09-03T14:16:55.375Z,30.40
2022-09-03T14:19:53.042Z,30.47
2022-09-03T14:22:50.517Z,30.54
2022-09-03T14:25:48.112Z,30.66
2022-09-03T14:28:45.610Z,30.82
2022-09-03T14:31:43.126Z,30.99
2022-09-03T14:34:40.646Z,31.21
2022-09-03T14:37:38.172Z,31.53
2022-09-03T14:40:35.671Z,31.50
2022-09-03T14:43:33.143Z,31.66
2022-09-03T14:46:30.679Z,31.95
2022-09-03T14:49:28.542Z,32.11
2022-09-03T14:52:26.001Z,31.98
2022-09-03T14:55:23.489Z,32.28
2022-09-03T14:58:21.022Z,32.42
2022-09-03T15:01:18.532Z,32.94
2022-09-03T15:04:16.059Z,33.20
2022-09-03T15:07:13.539Z,33.35
2022-09-03T15:10:11.036Z,33.69
2022-09-03T15:13:08.539Z,33.95
2022-09-03T15:16:06.518Z,34.10
2022-09-03T15:19:05.053Z,34.28
2022-09-03T15:22:03.781Z,34.68
2022-09-03T15:25:01.260Z,34.57
2022-09-03T15:27:58.751Z,34.87
2022-09-03T15:30:56.499Z,34.90
2022-09-03T15:33:54.003Z,35.13
2022-09-03T15:36:53.878Z,35.19
2022-09-03T15:39:51.558Z,35.38
2022-09-03T15:42:49.060Z,35.67
2022-09-03T15:45:46.628Z,35.78
2022-09-03T15:48:44.863Z,36.07
2022-09-03T15:51:43.329Z,36.39
2022-09-03T15:54:43.660Z,36.79
2022-09-03T15:57:41.137Z,36.84
2022-09-03T16:00:40.655Z,37.11
2022-09-03T16:03:40.174Z,37.28
2022-09-03T16:06:38.516Z,37.70
2022-09-03T16:09:35.998Z,37.94
2022-09-03T16:12:33.479Z,38.14
2022-09-03T16:15:32.025Z,38.45
2022-09-03T16:18:30.597Z,38.85
2022-09-03T16:21:28.099Z,39.05
2022-09-03T16:24:26.058Z,39.36
2022-09-03T16:27:23.542Z,39.77
2022-09-03T16:30:21.042Z,39.95
2022-09-03T16:33:19.385Z,40.45
2022-09-03T16:36:16.883Z,40.63
2022-09-03T16:39:14.466Z,41.01
2022-09-03T16:42:11.990Z,41.31
2022-09-03T16:45:12.038Z,41.66
2022-09-03T16:48:10.109Z,42.09
2022-09-03T16:51:07.886Z,42.14
2022-09-03T16:54:05.811Z,42.30
2022-09-03T16:57:03.360Z,42.63
2022-09-03T17:00:00.857Z,42.73
2022-09-03T17:02:58.626Z,42.97
2022-09-03T17:05:56.105Z,43.19
2022-09-03T17:08:53.585Z,43.33
2022-09-03T17:11:51.060Z,43.81
2022-09-03T17:14:48.589Z,43.65
2022-09-03T17:17:46.537Z,44.08
2022-09-03T17:20:49.076Z,44.14
2022-09-03T17:23:47.053Z,44.53
2022-09-03T17:26:44.659Z,44.75
2022-09-03T17:29:43.543Z,44.96
2022-09-03T17:32:41.032Z,45.14
2022-09-03T17:35:38.533Z,45.15
2022-09-03T17:38:36.001Z,45.22
2022-09-03T17:41:34.344Z,45.76
2022-09-03T17:44:32.018Z,46.21
2022-09-03T17:47:29.505Z,46.44
2022-09-03T17:50:27.605Z,46.12
2022-09-03T17:53:27.121Z,46.26
2022-09-03T17:56:24.697Z,46.62
2022-09-03T17:59:22.160Z,46.87
2022-09-03T18:02:19.664Z,46.82
2022-09-03T18:05:20.686Z,47.14
2022-09-03T18:08:18.161Z,47.55
2022-09-03T18:11:15.952Z,47.71
2022-09-03T18:14:13.870Z,48.04
2022-09-03T18:17:13.502Z,48.33
2022-09-03T18:20:28.795Z,48.53
2022-09-03T18:23:44.431Z,48.43
2022-09-03T18:26:59.463Z,48.97
2022-09-03T18:30:14.277Z,49.34
2022-09-03T18:33:29.075Z,49.56
2022-09-03T18:36:44.282Z,50.16
2022-09-03T18:39:59.691Z,50.51
2022-09-03T18:43:15.555Z,50.91
2022-09-03T18:50:06.371Z,51.49
2022-09-03T18:53:25.418Z,52.13
2022-09-03T18:56:43.371Z,52.47
2022-09-03T18:59:58.881Z,52.73
2022-09-03T19:03:15.636Z,53.06
2022-09-03T19:06:34.608Z,52.95
2022-09-03T19:09:50.413Z,53.55
2022-09-03T19:13:05.945Z,53.96
2022-09-03T19:16:22.679Z,54.25
2022-09-03T19:19:38.570Z,54.47
2022-09-03T19:22:54.071Z,54.77
2022-09-03T19:26:09.388Z,55.06
2022-09-03T19:29:25.003Z,55.39
2022-09-03T19:32:40.558Z,55.71
2022-09-03T19:35:56.327Z,55.92
2022-09-03T19:39:12.016Z,56.29
2022-09-03T19:42:28.563Z,56.50
2022-09-03T19:45:43.974Z,56.74
2022-09-03T19:48:59.539Z,57.06
2022-09-03T19:52:14.970Z,57.26
2022-09-03T19:55:31.532Z,57.57
2022-09-03T19:58:47.462Z,57.83
2022-09-03T20:02:03.190Z,58.06
2022-09-03T20:05:19.090Z,58.26
2022-09-03T20:08:34.668Z,58.55
2022-09-03T20:11:32.461Z,58.73
2022-09-03T20:14:30.141Z,59.10
2022-09-03T20:17:27.709Z,59.36
2022-09-03T20:20:25.474Z,59.77
2022-09-03T20:23:23.313Z,59.97
2022-09-03T20:26:20.827Z,60.13
2022-09-03T20:29:18.451Z,60.59
2022-09-03T20:32:15.989Z,60.95
2022-09-03T20:35:13.523Z,61.37
2022-09-03T20:38:11.101Z,61.66
2022-09-03T20:41:08.579Z,61.92
2022-09-03T20:44:06.063Z,62.27
2022-09-03T20:47:04.625Z,62.67
2022-09-03T20:50:04.366Z,62.93
2022-09-03T20:53:03.153Z,62.97
2022-09-03T20:56:02.998Z,63.09
2022-09-03T20:59:01.366Z,63.45
2022-09-03T21:01:59.017Z,63.60
2022-09-03T21:04:56.655Z,63.53
2022-09-03T21:07:54.139Z,63.63
2022-09-03T21:10:51.635Z,63.94
2022-09-03T21:13:49.109Z,64.19
2022-09-03T21:16:46.594Z,64.41
2022-09-03T21:19:44.099Z,64.76
2022-09-03T21:22:41.569Z,64.89
2022-09-03T21:25:39.042Z,65.17
2022-09-03T21:28:38.695Z,65.42
2022-09-03T21:31:38.580Z,65.62
2022-09-03T21:34:36.411Z,65.81
2022-09-03T21:37:33.902Z,65.89
2022-09-03T21:40:32.525Z,66.25
2022-09-03T21:43:30.400Z,66.62
2022-09-03T21:46:27.906Z,66.89
2022-09-03T21:49:25.419Z,67.20
2022-09-03T21:52:22.896Z,67.50
2022-09-03T21:55:20.725Z,67.54
2022-09-03T21:58:18.249Z,67.63
2022-09-03T22:01:15.806Z,67.73
2022-09-03T22:04:13.303Z,67.74
2022-09-03T22:07:10.770Z,67.82
2022-09-03T22:10:08.387Z,67.69
2022-09-03T22:13:09.362Z,67.91
2022-09-03T22:16:07.375Z,67.53
2022-09-03T22:19:09.149Z,67.52
2022-09-03T22:22:06.640Z,67.54
2022-09-03T22:25:05.162Z,67.54
2022-09-03T22:28:03.503Z,67.37
2022-09-03T22:31:01.011Z,67.49
2022-09-03T22:33:58.515Z,67.46
2022-09-03T22:36:55.995Z,67.33
2022-09-03T22:39:53.533Z,67.39
2022-09-03T22:42:51.041Z,67.36
2022-09-03T22:45:48.576Z,67.33
2022-09-03T22:48:46.073Z,67.35
2022-09-03T22:51:43.553Z,67.52
2022-09-03T22:54:41.046Z,67.64
2022-09-03T22:57:38.528Z,67.77
2022-09-03T23:00:35.989Z,67.87
2022-09-03T23:03:37.111Z,67.99
2022-09-03T23:06:34.686Z,68.02
2022-09-03T23:09:32.184Z,68.05
2022-09-03T23:12:29.659Z,68.07
2022-09-03T23:15:30.687Z,68.26
2022-09-03T23:18:28.179Z,68.40
2022-09-03T23:21:25.670Z,68.52
2022-09-03T23:24:23.139Z,68.69
2022-09-03T23:27:20.604Z,68.91
2022-09-03T23:30:18.096Z,69.13
2022-09-03T23:33:15.587Z,69.23
2022-09-03T23:36:13.908Z,69.27
2022-09-03T23:39:11.376Z,69.13
2022-09-03T23:42:09.122Z,69.72
2022-09-03T23:45:07.153Z,69.91
2022-09-03T23:48:07.700Z,70.17
2022-09-03T23:51:05.206Z,69.96
2022-09-03T23:54:02.698Z,70.15
2022-09-03T23:57:00.729Z,70.34
2022-09-03T23:59:58.217Z,70.40
